Time;durP1;ratioP1;P1;durP2;ratioP2;P2;SDS_P1;SDS_P2;PMS_P1;PMS_P2;Temp;Humidity;BMP_temperature;BMP_pressure;BME280_temperature;BME280_humidity;BME280_pressure;Samples;Min_cycle;Max_cycle;Signal;HPM_P1;HPM_P2
2022/08/03 00:00:47;;;;;;;4.88;4.05;;;;;;;17.24;52.89;101423.44;4998055;28;20133;-77
2022/08/03 00:03:12;;;;;;;5.30;4.80;;;;;;;17.16;52.81;101420.44;5011492;28;20052;-77
2022/08/03 00:05:38;;;;;;;4.82;4.18;;;;;;;17.10;53.34;101426.06;5017809;28;20530;-78
2022/08/03 00:08:04;;;;;;;7.97;4.45;;;;;;;17.09;52.88;101413.81;5020250;28;20515;-78
2022/08/03 00:10:29;;;;;;;5.65;4.25;;;;;;;17.12;53.03;101423.34;5012673;28;20065;-78
2022/08/03 00:12:55;;;;;;;6.53;4.53;;;;;;;17.09;53.10;101415.59;5026502;28;20049;-77
2022/08/03 00:15:20;;;;;;;3.47;3.05;;;;;;;17.12;52.58;101418.91;5004578;28;20044;-76
2022/08/03 00:17:46;;;;;;;4.20;3.45;;;;;;;17.15;52.69;101418.72;5018769;28;20536;-76
2022/08/03 00:20:11;;;;;;;5.53;3.88;;;;;;;17.10;52.66;101422.59;5028045;28;20105;-76
2022/08/03 00:22:37;;;;;;;9.57;3.95;;;;;;;17.03;52.50;101417.66;5014355;28;20042;-77
2022/08/03 00:25:03;;;;;;;3.85;2.78;;;;;;;17.06;52.50;101418.44;5019050;28;20033;-75
2022/08/03 00:27:28;;;;;;;10.55;4.82;;;;;;;16.93;53.09;101418.28;5012319;28;20061;-75
2022/08/03 00:29:54;;;;;;;7.78;4.85;;;;;;;16.94;52.87;101422.66;5012227;28;20041;-75
2022/08/03 00:32:19;;;;;;;7.55;4.00;;;;;;;16.87;52.84;101423.91;5019757;28;20072;-75
2022/08/03 00:34:45;;;;;;;6.22;3.67;;;;;;;16.81;53.12;101425.97;5002486;28;20026;-75
2022/08/03 00:37:10;;;;;;;5.93;5.18;;;;;;;16.73;53.50;101428.19;5013326;28;20519;-76
2022/08/03 00:39:36;;;;;;;6.30;5.00;;;;;;;16.71;53.59;101427.44;5019229;28;20041;-76
2022/08/03 00:42:04;;;;;;;6.85;4.82;;;;;;;16.68;53.81;101419.69;5011216;28;20049;-77
2022/08/03 00:44:30;;;;;;;8.77;4.20;;;;;;;16.69;53.79;101423.16;5011285;28;20026;-75
2022/08/03 00:46:56;;;;;;;6.55;4.75;;;;;;;16.64;53.90;101423.41;5016492;28;20392;-75
2022/08/03 00:49:22;;;;;;;10.15;6.65;;;;;;;16.59;54.22;101414.94;5003971;28;20038;-78
2022/08/03 00:51:48;;;;;;;9.27;5.38;;;;;;;16.55;54.13;101422.16;5017214;28;20064;-76
2022/08/03 00:54:16;;;;;;;7.43;5.30;;;;;;;16.53;54.18;101415.25;5011577;28;20029;-74
2022/08/03 00:56:42;;;;;;;7.10;4.85;;;;;;;16.52;54.45;101408.31;5015361;28;20609;-77
2022/08/03 00:59:09;;;;;;;5.72;4.35;;;;;;;16.55;54.24;101408.97;5013872;28;20099;-76
2022/08/03 01:01:35;;;;;;;7.97;4.60;;;;;;;16.56;54.05;101415.09;5013731;28;20276;-76
2022/08/03 01:04:00;;;;;;;6.95;4.40;;;;;;;16.54;54.03;101409.06;5009141;28;20025;-74
2022/08/03 01:06:49;;;;;;;7.78;3.90;;;;;;;16.60;53.70;101406.09;5014815;28;20559;-76
2022/08/03 01:09:26;;;;;;;9.35;4.97;;;;;;;16.51;53.56;101401.31;5013445;28;20045;-76
2022/08/03 01:12:17;;;;;;;6.25;4.10;;;;;;;16.52;53.64;101403.03;5010314;28;20045;-75
2022/08/03 01:14:57;;;;;;;7.93;4.57;;;;;;;16.49;53.66;101400.53;5011179;28;20064;-76
2022/08/03 01:17:58;;;;;;;7.13;3.88;;;;;;;16.48;53.63;101398.84;5001480;28;20131;-77
2022/08/03 01:20:30;;;;;;;8.60;3.75;;;;;;;16.45;53.74;101391.13;4999739;28;20128;-75
2022/08/03 01:23:28;;;;;;;5.75;3.60;;;;;;;16.46;53.62;101393.66;5010775;28;20117;-76
2022/08/03 01:26:13;;;;;;;7.50;4.55;;;;;;;16.54;53.31;101394.06;5007094;28;20045;-76
2022/08/03 01:29:11;;;;;;;5.85;3.67;;;;;;;16.46;53.40;101392.81;5001906;28;20040;-78
2022/08/03 01:31:43;;;;;;;7.05;3.65;;;;;;;16.39;53.63;101387.03;4998619;28;20504;-77
2022/08/03 01:34:12;;;;;;;4.13;3.22;;;;;;;16.41;53.61;101390.44;4994679;28;20037;-77
2022/08/03 01:36:47;;;;;;;7.82;3.47;;;;;;;16.47;53.35;101389.25;5012752;28;20641;-77
2022/08/03 01:39:14;;;;;;;5.13;3.00;;;;;;;16.45;53.29;101385.84;5013173;28;20033;-77
2022/08/03 01:41:59;;;;;;;4.90;3.38;;;;;;;16.38;53.42;101383.56;5017022;28;20033;-76
2022/08/03 01:44:28;;;;;;;5.45;3.55;;;;;;;16.43;53.54;101388.56;5013482;28;20049;-76
2022/08/03 01:46:57;;;;;;;8.27;3.63;;;;;;;16.32;53.40;101375.97;4998771;28;20177;-77
2022/08/03 01:49:24;;;;;;;5.15;2.90;;;;;;;16.28;53.69;101378.88;5012333;28;20077;-78
2022/08/03 01:51:51;;;;;;;9.77;3.88;;;;;;;16.23;53.97;101376.50;5015034;28;20052;-75
2022/08/03 01:54:18;;;;;;;5.25;3.28;;;;;;;16.25;54.28;101385.19;5019166;28;20037;-78
2022/08/03 01:56:45;;;;;;;9.13;3.78;;;;;;;16.22;54.33;101380.09;5001790;28;20056;-78
2022/08/03 01:59:15;;;;;;;4.20;3.17;;;;;;;16.25;54.39;101379.06;5030087;28;20048;-76
2022/08/03 02:01:43;;;;;;;4.50;2.78;;;;;;;16.26;54.49;101368.41;5001876;28;20400;-75
2022/08/03 02:04:11;;;;;;;8.48;3.25;;;;;;;16.29;54.31;101376.16;5017039;28;20526;-77
2022/08/03 02:06:38;;;;;;;10.73;3.67;;;;;;;16.27;54.34;101377.19;5021290;28;20029;-77
2022/08/03 02:09:05;;;;;;;10.27;3.75;;;;;;;16.23;54.71;101376.50;5023408;28;20040;-78
2022/08/03 02:11:33;;;;;;;8.38;3.47;;;;;;;16.18;54.74;101370.63;5016562;28;20488;-77
2022/08/03 02:14:01;;;;;;;5.65;3.05;;;;;;;16.19;54.83;101369.69;5015710;28;20060;-75
2022/08/03 02:16:29;;;;;;;5.68;3.35;;;;;;;16.18;54.80;101365.38;5019875;28;20030;-77
2022/08/03 02:18:57;;;;;;;7.28;4.25;;;;;;;16.16;55.21;101372.50;5010098;28;20052;-78
2022/08/03 02:21:22;;;;;;;8.00;4.10;;;;;;;16.16;55.08;101373.34;5015696;28;20044;-77
2022/08/03 02:23:48;;;;;;;8.70;3.97;;;;;;;16.15;55.38;101363.75;5010737;28;20697;-77
2022/08/03 02:26:18;;;;;;;5.50;2.63;;;;;;;16.15;55.35;101362.88;5013131;28;20049;-76
2022/08/03 02:28:48;;;;;;;6.68;3.33;;;;;;;16.15;55.42;101368.16;5012839;28;20060;-78
2022/08/03 02:31:23;;;;;;;9.18;3.20;;;;;;;16.15;55.32;101362.88;5012468;28;20041;-78
2022/08/03 02:33:52;;;;;;;6.32;3.92;;;;;;;16.16;55.54;101367.25;5024353;28;20073;-76
2022/08/03 02:36:20;;;;;;;8.70;3.60;;;;;;;16.18;55.12;101368.00;5003362;28;20065;-76
2022/08/03 02:38:50;;;;;;;4.80;2.38;;;;;;;16.23;55.15;101365.94;5016116;28;20045;-77
2022/08/03 02:41:20;;;;;;;10.48;3.38;;;;;;;16.20;55.30;101368.78;5019145;28;20043;-76
2022/08/03 02:43:50;;;;;;;4.25;2.88;;;;;;;16.23;55.11;101360.66;5010446;28;20096;-77
2022/08/03 02:46:18;;;;;;;5.25;3.35;;;;;;;16.17;55.07;101364.50;4997808;28;20084;-77
2022/08/03 02:48:46;;;;;;;7.00;2.70;;;;;;;16.18;55.17;101354.81;5013934;28;20053;-74
2022/08/03 02:51:14;;;;;;;6.72;3.17;;;;;;;16.18;55.04;101346.91;5025158;28;20033;-77
2022/08/03 02:53:41;;;;;;;11.68;3.15;;;;;;;16.16;55.17;101354.06;5013493;28;20863;-77
2022/08/03 02:56:08;;;;;;;7.80;3.30;;;;;;;16.08;54.91;101341.28;5012295;28;20578;-78
2022/08/03 02:58:33;;;;;;;4.63;2.47;;;;;;;16.12;55.10;101344.59;5012064;28;20439;-79
2022/08/03 03:01:00;;;;;;;3.20;2.55;;;;;;;16.17;54.94;101342.56;4998340;28;20045;-77
2022/08/03 03:03:26;;;;;;;5.65;2.22;;;;;;;16.13;55.01;101338.38;5011668;28;20580;-77
2022/08/03 03:05:53;;;;;;;3.72;2.13;;;;;;;16.11;54.90;101342.91;5014890;28;20129;-77
2022/08/03 03:08:20;;;;;;;8.20;2.45;;;;;;;16.04;55.08;101342.41;5002285;28;20042;-75
2022/08/03 03:10:46;;;;;;;6.50;2.05;;;;;;;16.05;55.07;101336.19;5013987;28;20037;-77
2022/08/03 03:13:14;;;;;;;5.65;2.33;;;;;;;16.04;54.96;101333.63;5008475;28;20048;-77
2022/08/03 03:15:42;;;;;;;4.70;2.17;;;;;;;16.05;55.13;101335.34;5019783;28;20038;-77
2022/08/03 03:18:08;;;;;;;6.75;3.03;;;;;;;16.03;55.37;101329.31;4999819;28;20067;-77
2022/08/03 03:20:36;;;;;;;4.30;2.55;;;;;;;16.06;55.27;101337.03;5012750;28;20037;-76
2022/08/03 03:23:03;;;;;;;5.93;2.10;;;;;;;16.08;54.99;101335.16;5015756;28;20132;-77
2022/08/03 03:25:33;;;;;;;5.32;1.48;;;;;;;16.08;55.27;101325.47;5017528;28;20032;-77
2022/08/03 03:28:00;;;;;;;6.45;2.33;;;;;;;16.07;55.09;101331.69;4996425;28;20084;-78
2022/08/03 03:30:26;;;;;;;6.20;1.83;;;;;;;16.10;55.16;101330.66;5008691;28;20034;-77
2022/08/03 03:32:52;;;;;;;4.30;1.83;;;;;;;16.14;55.21;101337.47;5009523;28;20041;-76
2022/08/03 03:35:17;;;;;;;2.97;1.77;;;;;;;16.21;55.09;101325.63;5014350;28;20051;-76
2022/08/03 03:37:43;;;;;;;5.32;1.55;;;;;;;16.21;55.01;101331.75;5007319;28;20046;-76
2022/08/03 03:40:09;;;;;;;6.90;2.50;;;;;;;16.06;55.69;101326.47;5013445;28;20065;-77
2022/08/03 03:42:37;;;;;;;2.95;1.77;;;;;;;16.29;55.27;101330.47;5015679;28;20046;-75
2022/08/03 03:45:06;;;;;;;7.05;1.50;;;;;;;16.29;54.73;101333.97;5025448;28;20029;-77
2022/08/03 03:47:34;;;;;;;4.63;2.03;;;;;;;16.31;54.63;101326.81;5010867;28;20042;-77
2022/08/03 03:50:01;;;;;;;5.15;1.83;;;;;;;16.33;54.65;101324.06;5013878;28;20388;-77
2022/08/03 03:52:27;;;;;;;7.80;2.20;;;;;;;16.31;54.65;101329.44;4997522;28;20054;-76
2022/08/03 03:54:52;;;;;;;4.78;1.83;;;;;;;16.33;54.69;101331.97;5023747;28;20026;-77
2022/08/03 03:57:18;;;;;;;8.63;1.33;;;;;;;16.28;54.80;101326.97;5016392;28;20041;-78
2022/08/03 03:59:43;;;;;;;4.65;1.27;;;;;;;16.28;54.58;101328.75;5016088;28;20043;-75
2022/08/03 04:02:10;;;;;;;2.67;0.80;;;;;;;16.27;54.59;101324.44;5011955;28;20644;-77
2022/08/03 04:13:13;;;;;;;3.33;1.27;;;;;;;16.33;54.64;101330.22;5014184;28;20492;-77
2022/08/03 04:15:40;;;;;;;2.15;0.93;;;;;;;16.35;54.40;101328.34;5010573;28;20044;-77
2022/08/03 04:18:10;;;;;;;3.40;1.27;;;;;;;16.37;54.11;101336.16;5007153;28;20504;-76
2022/08/03 04:20:39;;;;;;;4.95;0.95;;;;;;;16.36;54.24;101329.19;5007497;28;20038;-75
2022/08/03 04:23:06;;;;;;;6.35;1.10;;;;;;;16.36;54.23;101324.75;5012379;28;20038;-74
2022/08/03 04:25:33;;;;;;;2.38;1.35;;;;;;;16.35;54.63;101333.63;5009179;28;20047;-76
2022/08/03 04:28:03;;;;;;;8.38;1.20;;;;;;;16.40;54.57;101326.28;5012399;28;20430;-77
2022/08/03 04:30:32;;;;;;;4.70;1.27;;;;;;;16.47;54.37;101337.34;5011743;28;20037;-76
2022/08/03 04:33:00;;;;;;;5.40;1.25;;;;;;;16.53;54.35;101334.34;5006639;28;20669;-75
2022/08/03 04:35:30;;;;;;;2.85;1.58;;;;;;;16.61;54.13;101339.16;4995247;28;20052;-77
2022/08/03 04:38:01;;;;;;;4.07;1.33;;;;;;;16.66;54.15;101339.72;5008743;28;20052;-76
2022/08/03 04:40:32;;;;;;;5.32;1.70;;;;;;;16.67;54.22;101337.97;5012375;28;20036;-75
2022/08/03 04:42:58;;;;;;;7.20;2.13;;;;;;;16.73;53.99;101338.47;5007796;28;20061;-76
2022/08/03 04:45:29;;;;;;;6.22;2.20;;;;;;;16.79;53.80;101337.25;5012681;28;20097;-74
2022/08/03 04:47:55;;;;;;;5.28;2.15;;;;;;;16.80;54.05;101334.53;5015298;28;20045;-75
2022/08/03 04:50:21;;;;;;;7.15;2.65;;;;;;;16.90;53.62;101337.47;5009772;28;20098;-76
2022/08/03 04:53:04;;;;;;;6.40;2.50;;;;;;;17.02;53.41;101338.53;5012024;28;20049;-74
2022/08/03 04:55:31;;;;;;;5.80;2.80;;;;;;;16.72;54.05;101346.47;4999008;28;20087;-76
2022/08/03 04:57:58;;;;;;;6.65;2.45;;;;;;;16.96;53.61;101345.03;5007182;28;20057;-77
2022/08/03 05:00:24;;;;;;;5.93;2.22;;;;;;;17.29;52.96;101340.44;5014650;28;20044;-76
2022/08/03 05:02:50;;;;;;;6.50;3.13;;;;;;;17.30;52.49;101336.88;5013706;28;20042;-76
2022/08/03 05:05:16;;;;;;;6.43;2.85;;;;;;;17.36;52.17;101336.50;5009890;28;20037;-77
2022/08/03 05:07:43;;;;;;;8.13;3.30;;;;;;;17.35;52.28;101340.06;5014643;28;20095;-76
2022/08/03 05:10:10;;;;;;;8.07;3.13;;;;;;;17.42;52.44;101346.66;5014902;28;20037;-76
2022/08/03 05:12:36;;;;;;;5.78;2.92;;;;;;;17.51;52.27;101343.47;4990156;28;20149;-77
2022/08/03 05:15:03;;;;;;;5.28;2.47;;;;;;;17.34;53.09;101346.31;5013983;28;20033;-76
2022/08/03 05:17:28;;;;;;;7.07;2.22;;;;;;;17.45;52.60;101347.34;5015462;28;20056;-76
2022/08/03 05:19:54;;;;;;;8.30;2.75;;;;;;;17.70;52.09;101350.28;5014158;28;20037;-78
2022/08/03 05:22:20;;;;;;;9.48;2.60;;;;;;;17.35;53.12;101350.63;5010408;28;20065;-78
2022/08/03 05:24:46;;;;;;;6.57;2.25;;;;;;;17.58;52.87;101349.22;4996153;28;20130;-77
2022/08/03 05:27:17;;;;;;;4.45;2.40;;;;;;;18.01;51.08;101357.13;5014538;28;20073;-77
2022/08/03 05:29:43;;;;;;;;;;;;;;;18.10;50.90;101342.47;5010229;28;20564;-77
2022/08/03 05:32:09;;;;;;;4.05;1.50;;;;;;;18.45;50.64;101343.69;4997987;28;19928;-77
2022/08/03 05:34:35;;;;;;;5.85;1.83;;;;;;;18.79;50.13;101346.72;5022860;28;20034;-77
2022/08/03 05:37:00;;;;;;;4.03;2.10;;;;;;;20.78;45.11;101343.19;5010463;28;20066;-76
2022/08/03 05:39:26;;;;;;;5.53;2.03;;;;;;;21.93;41.97;101347.50;5008261;28;20691;-77
2022/08/03 05:41:52;;;;;;;2.10;1.02;;;;;;;23.86;39.04;101348.94;5008658;28;20054;-76
2022/08/03 05:44:17;;;;;;;12.48;2.60;;;;;;;24.63;36.13;101356.16;5015405;28;20560;-76
2022/08/03 05:46:43;;;;;;;5.35;1.75;;;;;;;25.15;36.16;101344.25;5006945;28;20037;-77
2022/08/03 05:49:08;;;;;;;5.43;1.00;;;;;;;26.20;34.20;101351.91;5013613;28;20034;-77
2022/08/03 05:51:34;;;;;;;6.03;1.90;;;;;;;27.29;31.60;101351.50;5011848;28;20036;-76
2022/08/03 05:53:59;;;;;;;9.25;1.65;;;;;;;25.52;34.40;101359.47;5013770;28;20041;-76
2022/08/03 05:56:25;;;;;;;7.75;1.40;;;;;;;26.31;32.71;101350.78;5009068;28;20038;-77
2022/08/03 05:58:51;;;;;;;3.10;0.90;;;;;;;26.46;32.92;101354.63;5008505;28;20239;-76
2022/08/03 06:01:17;;;;;;;5.60;1.17;;;;;;;26.24;33.38;101347.88;5008379;28;20041;-76
2022/08/03 06:03:44;;;;;;;4.22;0.90;;;;;;;27.74;31.25;101354.91;5009564;28;20026;-76
2022/08/03 06:06:10;;;;;;;2.10;0.90;;;;;;;28.47;30.02;101366.78;5008945;28;20728;-76
2022/08/03 06:08:36;;;;;;;3.53;1.20;;;;;;;26.49;32.77;101369.53;5020217;28;20048;-76
2022/08/03 06:11:02;;;;;;;2.50;1.15;;;;;;;27.58;30.95;101365.56;4989012;28;20037;-77
2022/08/03 06:13:28;;;;;;;4.05;0.98;;;;;;;27.11;32.09;101365.00;5005939;28;20041;-75
2022/08/03 06:15:53;;;;;;;5.55;0.88;;;;;;;26.38;34.63;101370.66;5007308;28;20100;-77
2022/08/03 06:18:19;;;;;;;4.38;1.00;;;;;;;27.28;31.97;101365.13;4991664;28;20259;-77
2022/08/03 06:20:44;;;;;;;3.05;1.10;;;;;;;25.33;35.21;101361.22;5005148;28;20037;-78
2022/08/03 06:23:10;;;;;;;6.97;1.33;;;;;;;27.69;30.70;101368.81;5004141;28;20352;-77
2022/08/03 06:25:35;;;;;;;4.07;1.33;;;;;;;28.57;29.53;101359.41;5002626;28;20750;-76
2022/08/03 06:28:01;;;;;;;3.33;1.15;;;;;;;30.68;27.50;101357.75;5011209;28;20103;-77
2022/08/03 06:30:26;;;;;;;3.88;1.00;;;;;;;30.42;27.03;101357.31;5009890;28;20115;-77
2022/08/03 06:32:52;;;;;;;2.72;0.80;;;;;;;29.05;29.24;101363.03;5009104;28;20048;-77
2022/08/03 06:35:17;;;;;;;4.65;1.17;;;;;;;29.43;28.82;101357.88;4995168;28;20095;-79
2022/08/03 06:37:50;;;;;;;6.85;1.00;;;;;;;29.27;29.01;101348.03;5004382;28;20050;-76
2022/08/03 06:40:19;;;;;;;5.05;1.00;;;;;;;29.45;29.28;101345.09;5008218;28;20216;-77
2022/08/03 06:42:44;;;;;;;6.05;0.80;;;;;;;30.36;27.64;101348.94;5013044;28;20048;-80
2022/08/03 06:45:11;;;;;;;4.32;1.48;;;;;;;31.28;26.16;101347.84;5015918;28;20037;-77
2022/08/03 06:47:37;;;;;;;4.95;1.10;;;;;;;30.66;26.32;101346.31;5015348;28;20054;-78
2022/08/03 06:50:05;;;;;;;4.38;1.08;;;;;;;29.52;28.72;101351.44;5015812;28;20093;-74
2022/08/03 06:52:31;;;;;;;4.53;0.70;;;;;;;30.54;26.88;101350.47;5010445;28;20045;-74
2022/08/03 06:54:56;;;;;;;3.97;0.90;;;;;;;28.03;30.31;101353.63;5010608;28;20040;-76
2022/08/03 06:57:22;;;;;;;6.65;1.13;;;;;;;29.87;27.92;101349.28;5024961;28;20263;-76
2022/08/03 06:59:48;;;;;;;7.10;1.02;;;;;;;31.55;25.52;101361.72;5015311;28;20604;-74
2022/08/03 07:02:13;;;;;;;7.80;1.15;;;;;;;29.82;28.40;101362.44;5017345;28;20098;-76
2022/08/03 07:04:39;;;;;;;3.25;0.57;;;;;;;30.16;27.54;101355.84;5014538;28;20380;-75
2022/08/03 07:07:05;;;;;;;3.55;1.27;;;;;;;31.84;25.55;101358.09;5012995;28;20120;-75
2022/08/03 07:09:30;;;;;;;5.80;0.75;;;;;;;32.72;24.32;101360.56;4997036;28;20095;-74
2022/08/03 07:11:56;;;;;;;3.10;0.93;;;;;;;32.51;24.33;101358.78;4997811;28;20504;-77
2022/08/03 07:14:22;;;;;;;8.30;1.27;;;;;;;32.52;24.16;101355.03;5017170;28;20041;-77
2022/08/03 07:16:47;;;;;;;12.60;0.85;;;;;;;32.27;24.73;101360.00;5014667;28;20077;-75
2022/08/03 07:19:13;;;;;;;3.75;1.50;;;;;;;32.34;24.98;101366.28;5011582;28;20072;-76
2022/08/03 07:21:38;;;;;;;5.53;1.02;;;;;;;31.76;26.12;101358.22;5010910;28;20116;-75
2022/08/03 07:24:07;;;;;;;3.70;0.80;;;;;;;32.27;25.19;101368.09;5017216;28;20044;-75
2022/08/03 07:26:32;;;;;;;3.67;0.63;;;;;;;31.21;25.67;101369.38;5013214;28;20033;-75
2022/08/03 07:29:00;;;;;;;4.88;1.05;;;;;;;33.05;24.71;101371.66;5011860;28;20128;-77
2022/08/03 07:31:25;;;;;;;4.30;0.77;;;;;;;34.08;22.97;101367.06;5011288;28;20036;-76
2022/08/03 07:33:51;;;;;;;4.63;0.88;;;;;;;33.37;23.49;101380.16;5010140;28;20037;-77
2022/08/03 07:36:17;;;;;;;8.68;0.88;;;;;;;33.35;23.49;101371.44;5000674;28;20201;-78
2022/08/03 07:38:42;;;;;;;9.57;1.00;;;;;;;32.62;24.82;101366.34;5011504;28;20500;-76
2022/08/03 07:41:08;;;;;;;9.10;1.10;;;;;;;29.64;28.06;101365.41;5017236;28;20474;-76
2022/08/03 07:43:33;;;;;;;3.35;0.80;;;;;;;32.41;24.56;101364.53;5007638;28;20083;-78
2022/08/03 07:45:59;;;;;;;5.78;1.60;;;;;;;31.96;25.10;101370.13;5015883;28;20802;-76
2022/08/03 07:48:24;;;;;;;7.38;0.70;;;;;;;32.10;25.65;101367.56;4996698;28;20042;-77
2022/08/03 07:50:51;;;;;;;8.75;0.90;;;;;;;31.27;26.47;101369.63;5015508;28;20493;-76
2022/08/03 07:53:17;;;;;;;2.97;0.75;;;;;;;32.64;25.03;101364.28;5008061;28;20045;-77
2022/08/03 07:55:43;;;;;;;4.18;0.75;;;;;;;33.68;22.92;101366.09;5013747;28;20037;-77
2022/08/03 07:58:17;;;;;;;7.40;1.33;;;;;;;32.10;25.00;101362.16;5014844;28;20060;-76
2022/08/03 08:00:43;;;;;;;4.63;0.70;;;;;;;33.07;24.78;101368.75;4997541;28;20041;-76
2022/08/03 08:03:09;;;;;;;5.15;0.75;;;;;;;34.11;22.42;101371.25;5012225;28;20088;-76
2022/08/03 08:05:35;;;;;;;4.25;0.80;;;;;;;32.68;24.16;101379.09;5010907;28;20225;-76
2022/08/03 08:08:01;;;;;;;7.95;1.20;;;;;;;31.79;25.40;101383.00;5008977;28;20033;-77
2022/08/03 08:10:27;;;;;;;6.18;0.50;;;;;;;31.79;26.53;101382.16;5016127;28;20752;-78
2022/08/03 08:12:53;;;;;;;3.95;1.15;;;;;;;29.18;29.26;101381.38;5006168;28;20038;-77
2022/08/03 08:15:18;;;;;;;3.22;0.60;;;;;;;31.06;26.83;101381.19;5010587;28;20099;-76
2022/08/03 08:17:49;;;;;;;6.45;1.00;;;;;;;32.08;25.60;101391.25;5024715;28;20870;-77
2022/08/03 08:20:16;;;;;;;;;;;;;;;31.73;26.56;101389.16;5011068;28;20048;-77
2022/08/03 08:22:42;;;;;;;7.28;0.70;;;;;;;33.93;23.48;101393.53;5014652;28;20043;-77
2022/08/03 08:25:07;;;;;;;4.70;1.20;;;;;;;32.84;24.43;101389.66;5001750;28;20040;-77
2022/08/03 08:27:39;;;;;;;7.03;0.73;;;;;;;33.72;24.19;101382.84;5026023;28;20076;-78
2022/08/03 08:30:06;;;;;;;5.20;0.40;;;;;;;33.90;23.38;101383.06;5007712;28;20033;-77
2022/08/03 08:32:31;;;;;;;4.90;0.55;;;;;;;35.08;22.80;101379.78;5008245;28;20519;-77
2022/08/03 08:34:56;;;;;;;4.55;0.88;;;;;;;32.50;24.31;101385.00;5010265;28;20073;-78
2022/08/03 08:37:22;;;;;;;4.90;0.63;;;;;;;30.35;27.10;101384.97;5009396;28;20049;-76
2022/08/03 08:39:47;;;;;;;3.53;0.70;;;;;;;29.93;28.71;101391.69;5014913;28;20033;-77
2022/08/03 08:42:14;;;;;;;4.57;0.70;;;;;;;30.59;26.80;101389.38;5009577;28;20139;-78
2022/08/03 08:44:39;;;;;;;4.97;0.40;;;;;;;31.93;26.32;101388.53;5010870;28;20385;-75
2022/08/03 08:47:07;;;;;;;4.15;0.60;;;;;;;33.32;24.23;101382.66;4993881;28;20068;-77
2022/08/03 08:49:37;;;;;;;6.72;1.27;;;;;;;34.38;22.61;101385.69;5003522;28;20053;-76
2022/08/03 08:52:06;;;;;;;3.50;0.52;;;;;;;32.10;25.60;101391.88;5014858;28;20037;-77
2022/08/03 08:54:33;;;;;;;6.40;1.00;;;;;;;31.98;25.81;101392.34;5015979;28;20649;-76
2022/08/03 08:57:02;;;;;;;4.82;1.20;;;;;;;31.24;26.28;101380.81;5027901;28;20049;-79
2022/08/03 08:59:31;;;;;;;5.65;0.90;;;;;;;30.36;28.45;101385.84;5012664;28;20645;-77
2022/08/03 09:01:57;;;;;;;4.22;1.10;;;;;;;29.32;29.68;101390.56;5012884;28;20069;-78
2022/08/03 09:04:24;;;;;;;5.53;1.15;;;;;;;30.33;29.31;101396.97;5002152;28;20034;-76
2022/08/03 09:06:51;;;;;;;4.15;0.85;;;;;;;30.12;28.96;101395.78;5013033;28;20286;-77
2022/08/03 09:09:16;;;;;;;6.97;1.23;;;;;;;29.96;29.08;101402.09;5012128;28;20132;-77
2022/08/03 09:11:42;;;;;;;6.68;1.20;;;;;;;27.99;31.45;101398.81;5014857;28;20124;-77
2022/08/03 09:14:10;;;;;;;5.95;0.85;;;;;;;27.80;32.45;101399.06;5015761;28;20040;-77
2022/08/03 09:16:35;;;;;;;7.57;0.95;;;;;;;26.42;34.75;101406.00;5013389;28;20806;-76
2022/08/03 09:19:13;;;;;;;5.53;0.60;;;;;;;28.34;31.80;101395.03;4996538;28;20089;-75
2022/08/03 09:21:38;;;;;;;2.53;0.40;;;;;;;30.63;28.87;101395.25;5007836;28;20076;-76
2022/08/03 09:24:08;;;;;;;5.93;0.77;;;;;;;31.49;27.12;101393.00;5014417;28;20948;-76
2022/08/03 09:26:34;;;;;;;5.65;0.60;;;;;;;29.34;30.70;101394.78;4999808;28;20033;-75
2022/08/03 09:29:01;;;;;;;4.18;1.00;;;;;;;29.97;29.19;101398.38;5012751;28;20061;-76
2022/08/03 09:31:33;;;;;;;4.65;1.08;;;;;;;29.33;30.80;101394.97;5012800;28;20040;-74
2022/08/03 09:34:10;;;;;;;5.75;1.05;;;;;;;30.27;30.04;101398.56;4991486;28;20052;-75
2022/08/03 09:36:44;;;;;;;3.05;0.47;;;;;;;28.70;32.11;101400.09;5009325;28;20247;-74
2022/08/03 09:39:18;;;;;;;6.53;0.77;;;;;;;29.20;31.43;101389.28;5014151;28;20126;-74
2022/08/03 09:41:49;;;;;;;2.53;0.98;;;;;;;28.79;31.77;101400.94;5009522;28;20029;-75
2022/08/03 09:44:14;;;;;;;2.83;0.40;;;;;;;27.93;33.50;101397.59;5012027;28;20029;-74
2022/08/03 09:46:52;;;;;;;6.28;1.20;;;;;;;27.31;34.10;101383.56;5001490;28;20073;-76
2022/08/03 09:49:17;;;;;;;4.43;0.90;;;;;;;27.38;32.59;101397.19;5009666;28;20026;-74
2022/08/03 09:51:44;;;;;;;2.65;0.38;;;;;;;28.42;31.67;101388.81;5014094;28;20033;-75
2022/08/03 09:54:10;;;;;;;4.82;0.60;;;;;;;29.30;30.99;101395.28;5005029;28;20044;-75
2022/08/03 09:56:43;;;;;;;3.92;1.05;;;;;;;28.83;31.65;101394.19;5014104;28;20045;-75
2022/08/03 09:59:11;;;;;;;2.80;0.40;;;;;;;28.73;31.33;101394.38;5008914;28;20037;-74
2022/08/03 10:01:41;;;;;;;4.10;0.70;;;;;;;28.27;32.08;101380.56;5012828;28;20040;-76
2022/08/03 10:04:15;;;;;;;6.47;0.57;;;;;;;28.80;32.38;101385.63;5016173;28;20211;-77
2022/08/03 10:07:00;;;;;;;6.38;1.17;;;;;;;28.32;32.38;101388.97;5007643;28;20150;-75
2022/08/03 10:09:26;;;;;;;6.72;0.60;;;;;;;29.30;31.03;101388.03;5011726;28;20034;-74
2022/08/03 10:11:52;;;;;;;3.20;0.68;;;;;;;29.18;30.64;101381.38;5013551;28;20046;-74
2022/08/03 10:14:18;;;;;;;6.50;0.60;;;;;;;29.55;30.21;101386.13;4995130;28;20045;-76
2022/08/03 10:16:45;;;;;;;4.60;0.40;;;;;;;29.39;30.58;101386.16;4999414;28;20041;-73
2022/08/03 10:19:13;;;;;;;5.32;0.65;;;;;;;29.77;30.55;101378.28;5013844;28;20044;-76
2022/08/03 10:21:41;;;;;;;5.22;0.90;;;;;;;29.35;30.40;101382.16;5029841;28;20059;-76
2022/08/03 10:24:09;;;;;;;10.50;0.75;;;;;;;29.82;30.10;101378.59;5005665;28;20033;-76
2022/08/03 10:26:38;;;;;;;4.20;0.70;;;;;;;28.21;32.04;101386.63;5013704;28;20029;-77
2022/08/03 10:29:10;;;;;;;5.50;1.30;;;;;;;29.40;31.01;101384.34;5031244;28;20989;-76
2022/08/03 10:31:43;;;;;;;3.80;1.15;;;;;;;28.78;31.54;101385.78;5020498;28;20450;-77
2022/08/03 10:34:21;;;;;;;3.22;0.80;;;;;;;28.15;32.51;101373.84;5013165;28;20030;-77
2022/08/03 10:36:48;;;;;;;8.02;0.57;;;;;;;28.36;32.40;101373.34;5014202;28;20088;-77
2022/08/03 10:39:18;;;;;;;6.10;0.90;;;;;;;28.33;33.08;101382.59;5003021;28;20526;-74
2022/08/03 10:41:45;;;;;;;8.45;1.38;;;;;;;28.45;32.58;101384.94;5015472;28;20037;-75
2022/08/03 10:44:19;;;;;;;5.53;0.85;;;;;;;27.76;32.76;101385.13;5021287;28;20037;-75
2022/08/03 10:46:47;;;;;;;3.92;0.85;;;;;;;27.33;33.65;101389.63;5031465;28;20038;-76
2022/08/03 10:49:15;;;;;;;8.32;0.85;;;;;;;27.93;33.34;101381.47;5014931;28;20038;-76
2022/08/03 10:51:44;;;;;;;6.45;0.82;;;;;;;28.48;34.37;101379.25;5016651;28;20048;-74
2022/08/03 10:57:41;;;;;;;7.47;0.75;;;;;;;28.70;32.21;101383.97;5020619;28;20604;-76
2022/08/03 11:00:08;;;;;;;2.47;0.80;;;;;;;29.16;31.53;101376.16;5032042;28;20029;-75
2022/08/03 11:03:03;;;;;;;5.50;0.52;;;;;;;29.69;31.08;101378.34;5014223;28;20048;-75
2022/08/03 11:05:31;;;;;;;2.15;0.28;;;;;;;29.61;30.65;101386.47;5020886;28;20053;-76
2022/08/03 11:08:20;;;;;;;6.72;1.13;;;;;;;29.42;30.66;101380.47;5012913;28;20065;-75
2022/08/03 11:10:47;;;;;;;4.95;0.75;;;;;;;28.63;31.80;101380.25;5020466;28;20352;-75
2022/08/03 11:13:19;;;;;;;6.28;0.95;;;;;;;27.96;33.36;101383.00;5015380;28;20037;-75
2022/08/03 11:15:47;;;;;;;4.32;0.40;;;;;;;28.88;31.97;101380.22;5003455;28;20064;-74
2022/08/03 11:18:14;;;;;;;3.53;0.70;;;;;;;29.29;31.16;101390.94;5012947;28;20038;-75
2022/08/03 11:20:52;;;;;;;9.77;0.65;;;;;;;30.56;29.54;101383.53;5020010;28;20509;-75
2022/08/03 11:23:43;;;;;;;3.20;0.50;;;;;;;30.47;29.14;101382.72;5014746;28;20480;-75
2022/08/03 11:26:11;;;;;;;1.90;0.50;;;;;;;30.83;29.07;101368.59;5016175;28;20061;-76
2022/08/03 11:28:38;;;;;;;6.88;0.75;;;;;;;30.85;29.48;101380.03;5027508;28;20060;-74
2022/08/03 11:31:23;;;;;;;5.70;0.70;;;;;;;29.80;29.18;101377.09;5011193;28;20095;-74
2022/08/03 11:34:05;;;;;;;3.33;0.40;;;;;;;29.00;31.11;101376.19;5015196;28;20061;-75
2022/08/03 11:37:09;;;;;;;8.98;0.57;;;;;;;29.27;30.91;101374.94;5004775;28;20120;-75
2022/08/03 11:39:42;;;;;;;3.20;0.95;;;;;;;28.52;32.24;101375.19;5014963;28;20109;-75
2022/08/03 11:42:23;;;;;;;7.88;1.05;;;;;;;27.83;32.93;101379.94;5019620;28;20045;-74